createdAt,value
2022-10-18T00:01:53.268Z,3
2022-10-18T00:07:37.621Z,3.3
2022-10-18T00:13:21.280Z,3.2
2022-10-18T00:19:05.290Z,3.1
2022-10-18T00:24:48.537Z,3.1
2022-10-18T00:30:31.662Z,3.2
2022-10-18T00:36:15.469Z,3.5
2022-10-18T00:41:58.939Z,3.3
2022-10-18T00:47:42.492Z,3.3
2022-10-18T00:53:25.651Z,3.1
2022-10-18T00:59:09.026Z,3
2022-10-18T01:04:52.236Z,3.1
2022-10-18T01:10:40.757Z,3.3
2022-10-18T01:16:28.747Z,3
2022-10-18T01:22:17.019Z,3.1
2022-10-18T01:28:06.125Z,3.3
2022-10-18T01:33:51.524Z,3.2
2022-10-18T01:39:37.094Z,3.2
2022-10-18T01:45:21.415Z,3
2022-10-18T01:51:04.680Z,3
2022-10-18T01:56:55.174Z,3.1
2022-10-18T02:02:43.427Z,3.4
2022-10-18T02:08:28.805Z,3.2
2022-10-18T02:14:13.639Z,3.1
2022-10-18T02:19:57.693Z,3.1
2022-10-18T02:25:41.071Z,3
2022-10-18T02:31:26.766Z,3.1
2022-10-18T02:37:10.241Z,3.1
2022-10-18T02:42:56.002Z,3.3
2022-10-18T02:48:39.226Z,3.2
2022-10-18T02:54:22.754Z,3.5
2022-10-18T03:00:06.658Z,3.4
2022-10-18T03:05:50.871Z,3.2
2022-10-18T03:11:34.089Z,3.5
2022-10-18T03:17:17.611Z,3.3
2022-10-18T03:23:00.764Z,3.1
2022-10-18T03:28:45.104Z,3.3
2022-10-18T03:34:28.458Z,3.3
2022-10-18T03:40:12.450Z,3.3
2022-10-18T03:45:55.684Z,3.5
2022-10-18T03:51:38.780Z,3.5
2022-10-18T03:57:21.898Z,3.4
2022-10-18T04:03:05.357Z,3.3
2022-10-18T04:08:48.724Z,3.4
2022-10-18T04:14:32.579Z,3.6
2022-10-18T04:20:16.126Z,3.5
2022-10-18T04:25:59.181Z,3.4
2022-10-18T04:31:42.374Z,3.8
2022-10-18T04:37:25.797Z,3.5
2022-10-18T04:43:08.952Z,3.6
2022-10-18T04:48:52.279Z,3.7
2022-10-18T04:54:35.683Z,3.4
2022-10-18T05:00:19.309Z,3.8
2022-10-18T05:06:05.165Z,3.6
2022-10-18T05:11:51.611Z,3.5
2022-10-18T05:17:35.045Z,3.5
2022-10-18T05:23:18.068Z,3.8
2022-10-18T05:29:01.494Z,3.8
2022-10-18T05:34:44.953Z,3.4
2022-10-18T05:40:28.164Z,3.9
2022-10-18T05:46:16.957Z,3.7
2022-10-18T05:52:00.048Z,4.3
2022-10-18T05:57:43.113Z,4.6
2022-10-18T06:03:26.519Z,5
2022-10-18T06:09:09.810Z,5.2
2022-10-18T06:14:52.987Z,5.2
2022-10-18T06:20:36.192Z,5
2022-10-18T06:26:19.870Z,5.7
2022-10-18T06:32:03.007Z,5.3
2022-10-18T06:37:46.168Z,5.8
2022-10-18T06:43:29.435Z,5.9
2022-10-18T06:49:19.982Z,6
2022-10-18T06:55:09.446Z,6
2022-10-18T07:00:52.635Z,6
2022-10-18T07:06:35.811Z,6.1
2022-10-18T07:12:18.980Z,6.5
2022-10-18T07:18:02.160Z,6.8
2022-10-18T07:23:46.303Z,6.9
2022-10-18T07:29:29.618Z,6.8
2022-10-18T07:35:13.200Z,6.9
2022-10-18T07:41:02.271Z,7
2022-10-18T07:46:45.493Z,7
2022-10-18T07:52:28.829Z,7.4
2022-10-18T07:58:12.249Z,7.7
2022-10-18T08:03:55.497Z,8.1
2022-10-18T08:09:40.208Z,7.7
2022-10-18T08:15:23.283Z,7.6
2022-10-18T08:21:08.224Z,7.6
2022-10-18T08:26:52.541Z,7.7
2022-10-18T08:32:36.490Z,7.8
2022-10-18T08:38:20.686Z,8
2022-10-18T08:44:09.268Z,7
2022-10-18T08:49:54.334Z,7
2022-10-18T08:55:39.995Z,7.1
2022-10-18T09:01:29.905Z,7.3
2022-10-18T09:07:25.295Z,7.4
2022-10-18T09:13:23.078Z,7.3
2022-10-18T09:19:11.242Z,7.4
2022-10-18T09:24:58.364Z,7.5
2022-10-18T09:30:46.848Z,7
2022-10-18T09:36:32.915Z,7
2022-10-18T09:42:20.096Z,7.4
2022-10-18T09:48:09.053Z,6.6
2022-10-18T09:53:58.266Z,6.7
2022-10-18T09:59:42.734Z,6.6
2022-10-18T10:05:25.949Z,6.8
2022-10-18T10:11:15.495Z,6.1
2022-10-18T10:17:00.074Z,6.3
2022-10-18T10:22:44.114Z,6.6
2022-10-18T10:28:30.216Z,6.4
2022-10-18T10:34:20.130Z,6.3
2022-10-18T10:40:28.624Z,6.1
2022-10-18T10:46:13.620Z,6
2022-10-18T10:52:26.122Z,6
2022-10-18T10:58:05.042Z,5.5
2022-10-18T11:03:51.376Z,6.2
2022-10-18T11:09:40.738Z,5.7
2022-10-18T11:15:28.977Z,5.6
2022-10-18T11:21:14.683Z,5.9
2022-10-18T11:27:02.487Z,5.3
2022-10-18T11:32:49.414Z,5.6
2022-10-18T11:38:40.562Z,5.3
2022-10-18T11:44:29.095Z,5
2022-10-18T11:50:18.553Z,4.8
2022-10-18T11:56:06.280Z,4.9
2022-10-18T12:01:54.367Z,5
2022-10-18T12:07:41.476Z,4.8
2022-10-18T12:13:27.062Z,4.5
2022-10-18T12:19:15.401Z,4.8
2022-10-18T12:24:58.673Z,4.5
2022-10-18T12:30:45.309Z,4.5
2022-10-18T12:36:36.502Z,4.3
2022-10-18T12:42:24.183Z,4.4
2022-10-18T12:48:08.740Z,4.3
2022-10-18T12:53:56.780Z,4.3
2022-10-18T12:59:44.565Z,4.4
2022-10-18T13:05:56.133Z,4.3
2022-10-18T13:11:39.262Z,4.6
2022-10-18T13:17:27.726Z,4.6
2022-10-18T13:23:18.797Z,4.4
2022-10-18T13:29:07.639Z,4.6
2022-10-18T13:34:51.223Z,4.3
2022-10-18T13:40:34.878Z,4
2022-10-18T13:46:18.531Z,4.1
2022-10-18T13:52:09.707Z,4.1
2022-10-18T13:57:58.807Z,4.3
2022-10-18T14:04:00.493Z,4.2
2022-10-18T14:09:58.487Z,4.1
2022-10-18T14:15:47.276Z,4.1
2022-10-18T14:21:35.764Z,3.9
2022-10-18T14:27:22.769Z,4.2
2022-10-18T14:33:06.363Z,4
2022-10-18T14:38:53.095Z,3.9
2022-10-18T14:44:36.402Z,4
2022-10-18T14:50:32.579Z,3.9
2022-10-18T14:56:21.834Z,4
2022-10-18T15:02:06.405Z,4
2022-10-18T15:07:52.083Z,4.4
2022-10-18T15:13:36.014Z,4.3
2022-10-18T15:19:39.759Z,4.2
2022-10-18T15:25:28.044Z,5.6
2022-10-18T15:31:23.546Z,5.3
2022-10-18T15:37:12.666Z,4.6
2022-10-18T15:42:57.067Z,4
2022-10-18T15:48:42.047Z,4.3
2022-10-18T15:54:30.410Z,4.3
2022-10-18T16:00:20.038Z,3.7
2022-10-18T16:06:05.484Z,3.9
2022-10-18T16:11:54.250Z,4.1
2022-10-18T16:17:40.233Z,4.1
2022-10-18T16:23:25.348Z,3.9
2022-10-18T16:29:11.936Z,3.8
2022-10-18T16:34:55.238Z,4.3
2022-10-18T16:40:42.974Z,4.3
2022-10-18T16:46:27.847Z,4.3
2022-10-18T16:52:11.307Z,4
2022-10-18T16:57:54.726Z,3.9
2022-10-18T17:03:37.926Z,4
2022-10-18T17:09:21.191Z,4.1
2022-10-18T17:15:04.971Z,4.1
2022-10-18T17:20:48.420Z,3.9
2022-10-18T17:26:33.155Z,3.9
2022-10-18T17:32:16.569Z,3.9
2022-10-18T17:37:59.725Z,4.2
2022-10-18T17:43:42.940Z,3.9
2022-10-18T17:49:26.647Z,3.7
2022-10-18T17:55:10.047Z,3.8
2022-10-18T18:00:54.749Z,3.9
2022-10-18T18:06:43.240Z,3.9
2022-10-18T18:12:26.718Z,3.6
2022-10-18T18:18:10.483Z,3.5
2022-10-18T18:23:53.935Z,3.7
2022-10-18T18:29:37.171Z,3.8
2022-10-18T18:35:20.383Z,4
2022-10-18T18:41:11.025Z,3.8
2022-10-18T18:46:54.479Z,4
2022-10-18T18:52:38.069Z,4
2022-10-18T18:58:21.267Z,4
2022-10-18T19:04:05.882Z,4
2022-10-18T19:09:49.085Z,4.2
2022-10-18T19:15:32.739Z,4.2
2022-10-18T19:21:16.227Z,4.5
2022-10-18T19:27:00.287Z,4.2
2022-10-18T19:32:43.611Z,4
2022-10-18T19:38:26.782Z,4.1
2022-10-18T19:44:10.091Z,4.2
2022-10-18T19:49:53.197Z,4.2
2022-10-18T19:55:36.482Z,4
2022-10-18T20:01:21.129Z,4
2022-10-18T20:07:04.924Z,4.3
2022-10-18T20:12:48.276Z,3.8
2022-10-18T20:18:32.332Z,3.9
2022-10-18T20:24:16.108Z,3.9
2022-10-18T20:30:01.882Z,3.9
2022-10-18T20:35:53.811Z,3.7
2022-10-18T20:41:40.920Z,3.7
2022-10-18T20:47:24.979Z,3.9
2022-10-18T20:53:09.282Z,3.7
2022-10-18T20:58:53.431Z,4.1
2022-10-18T21:04:43.130Z,3.8
2022-10-18T21:10:27.183Z,3.9
2022-10-18T21:16:10.660Z,3.7
2022-10-18T21:21:56.397Z,3.7
2022-10-18T21:27:39.778Z,4.1
2022-10-18T21:33:23.261Z,3.6
2022-10-18T21:39:08.519Z,3.9
2022-10-18T21:44:51.783Z,3.8
2022-10-18T21:50:35.195Z,4.1
2022-10-18T21:56:19.060Z,4.2
2022-10-18T22:02:02.195Z,4.3
2022-10-18T22:07:45.522Z,4.3
2022-10-18T22:13:28.880Z,4.5
2022-10-18T22:19:12.065Z,4.3
2022-10-18T22:24:55.270Z,4.4
2022-10-18T22:30:41.366Z,4.3
2022-10-18T22:36:24.746Z,4.3
2022-10-18T22:42:07.970Z,4.1
2022-10-18T22:47:51.181Z,4.2
2022-10-18T22:53:34.889Z,4.3
2022-10-18T22:59:18.164Z,4.7
2022-10-18T23:05:01.610Z,4.4
2022-10-18T23:10:44.977Z,4.3
2022-10-18T23:16:28.207Z,4.5
2022-10-18T23:22:11.283Z,4.6
2022-10-18T23:27:54.516Z,5.1
2022-10-18T23:33:37.494Z,4.8
2022-10-18T23:39:21.035Z,5.1
2022-10-18T23:45:04.303Z,5.1
2022-10-18T23:50:47.804Z,5.2
2022-10-18T23:56:31.047Z,5.3
